sensor_id;sensor_type;location;lat;lon;timestamp;pressure;altitude;pressure_sealevel;temperature;humidity
73429;BME280;61643;49.564;17.412;2023-05-23T00:00:42;97905.09;;;12.49;80.47
73429;BME280;61643;49.564;17.412;2023-05-23T00:03:09;97905.28;;;12.68;80.38
73429;BME280;61643;49.564;17.412;2023-05-23T00:05:35;97910.13;;;12.71;80.23
73429;BME280;61643;49.564;17.412;2023-05-23T00:08:01;97910.44;;;12.64;81.46
73429;BME280;61643;49.564;17.412;2023-05-23T00:10:27;97909.34;;;12.65;81.09
73429;BME280;61643;49.564;17.412;2023-05-23T00:12:54;97913.94;;;12.60;82.10
73429;BME280;61643;49.564;17.412;2023-05-23T00:15:19;97905.88;;;12.55;81.50
73429;BME280;61643;49.564;17.412;2023-05-23T00:17:47;97912.94;;;12.46;81.88
73429;BME280;61643;49.564;17.412;2023-05-23T00:20:13;97907.03;;;12.33;82.74
73429;BME280;61643;49.564;17.412;2023-05-23T00:22:39;97901.66;;;12.23;83.03
73429;BME280;61643;49.564;17.412;2023-05-23T00:25:10;97897.13;;;12.14;84.16
73429;BME280;61643;49.564;17.412;2023-05-23T00:27:36;97904.13;;;12.15;83.57
73429;BME280;61643;49.564;17.412;2023-05-23T00:30:02;97909.78;;;12.08;83.73
73429;BME280;61643;49.564;17.412;2023-05-23T00:32:29;97899.56;;;12.10;83.44
73429;BME280;61643;49.564;17.412;2023-05-23T00:34:55;97901.19;;;12.06;83.12
73429;BME280;61643;49.564;17.412;2023-05-23T00:37:21;97896.84;;;12.10;83.14
73429;BME280;61643;49.564;17.412;2023-05-23T00:39:47;97898.41;;;12.26;82.24
73429;BME280;61643;49.564;17.412;2023-05-23T00:42:13;97898.63;;;12.45;81.31
73429;BME280;61643;49.564;17.412;2023-05-23T00:44:39;97899.38;;;12.61;79.77
73429;BME280;61643;49.564;17.412;2023-05-23T00:47:06;97903.47;;;12.48;82.47
73429;BME280;61643;49.564;17.412;2023-05-23T00:49:33;97900.50;;;12.45;82.00
73429;BME280;61643;49.564;17.412;2023-05-23T00:52:00;97908.63;;;12.40;82.10
73429;BME280;61643;49.564;17.412;2023-05-23T00:54:28;97902.22;;;12.25;83.68
73429;BME280;61643;49.564;17.412;2023-05-23T00:56:56;97906.53;;;12.21;83.25
73429;BME280;61643;49.564;17.412;2023-05-23T00:59:24;97901.19;;;12.11;83.58
73429;BME280;61643;49.564;17.412;2023-05-23T01:01:51;97907.09;;;12.13;83.56
73429;BME280;61643;49.564;17.412;2023-05-23T01:04:19;97897.94;;;12.09;84.25
73429;BME280;61643;49.564;17.412;2023-05-23T01:06:45;97904.41;;;12.18;83.78
73429;BME280;61643;49.564;17.412;2023-05-23T01:09:14;97899.47;;;12.30;83.31
73429;BME280;61643;49.564;17.412;2023-05-23T01:14:21;97901.97;;;12.22;83.47
73429;BME280;61643;49.564;17.412;2023-05-23T01:17:02;97900.59;;;12.24;82.82
73429;BME280;61643;49.564;17.412;2023-05-23T01:20:01;97896.31;;;12.13;84.49
73429;BME280;61643;49.564;17.412;2023-05-23T01:28:38;97902.44;;;12.39;82.74
73429;BME280;61643;49.564;17.412;2023-05-23T01:31:07;97901.06;;;12.42;83.82
73429;BME280;61643;49.564;17.412;2023-05-23T01:33:35;97909.72;;;12.33;83.98
73429;BME280;61643;49.564;17.412;2023-05-23T01:36:03;97902.50;;;12.14;85.32
73429;BME280;61643;49.564;17.412;2023-05-23T01:38:29;97904.69;;;12.07;86.11
73429;BME280;61643;49.564;17.412;2023-05-23T01:40:55;97901.44;;;12.05;85.07
73429;BME280;61643;49.564;17.412;2023-05-23T01:43:22;97906.00;;;12.19;84.10
73429;BME280;61643;49.564;17.412;2023-05-23T01:45:49;97904.91;;;12.20;83.93
73429;BME280;61643;49.564;17.412;2023-05-23T01:48:15;97904.91;;;12.25;84.03
73429;BME280;61643;49.564;17.412;2023-05-23T01:50:43;97903.84;;;12.21;86.14
73429;BME280;61643;49.564;17.412;2023-05-23T01:53:15;97894.94;;;12.16;86.02
73429;BME280;61643;49.564;17.412;2023-05-23T01:55:42;97891.97;;;12.22;85.90
73429;BME280;61643;49.564;17.412;2023-05-23T01:58:08;97888.75;;;12.10;86.27
73429;BME280;61643;49.564;17.412;2023-05-23T02:00:34;97889.03;;;12.09;88.01
73429;BME280;61643;49.564;17.412;2023-05-23T02:03:00;97887.44;;;12.03;89.37
73429;BME280;61643;49.564;17.412;2023-05-23T02:05:26;97896.88;;;11.95;89.50
73429;BME280;61643;49.564;17.412;2023-05-23T02:07:52;97899.34;;;11.76;91.91
73429;BME280;61643;49.564;17.412;2023-05-23T02:10:18;97889.91;;;11.84;91.14
73429;BME280;61643;49.564;17.412;2023-05-23T02:12:44;97896.94;;;11.75;90.95
73429;BME280;61643;49.564;17.412;2023-05-23T02:15:10;97879.94;;;11.74;91.51
73429;BME280;61643;49.564;17.412;2023-05-23T02:17:36;97874.00;;;11.72;91.72
73429;BME280;61643;49.564;17.412;2023-05-23T02:20:04;97870.75;;;11.65;92.03
73429;BME280;61643;49.564;17.412;2023-05-23T02:22:31;97879.13;;;11.59;92.25
73429;BME280;61643;49.564;17.412;2023-05-23T02:24:57;97868.88;;;11.56;92.33
73429;BME280;61643;49.564;17.412;2023-05-23T02:27:23;97866.44;;;11.54;92.07
73429;BME280;61643;49.564;17.412;2023-05-23T02:29:50;97871.31;;;11.52;91.22
73429;BME280;61643;49.564;17.412;2023-05-23T02:32:16;97868.91;;;11.35;92.00
73429;BME280;61643;49.564;17.412;2023-05-23T02:34:42;97867.81;;;11.36;92.05
73429;BME280;61643;49.564;17.412;2023-05-23T02:37:12;97861.88;;;11.40;91.17
73429;BME280;61643;49.564;17.412;2023-05-23T02:39:38;97854.88;;;11.39;90.76
73429;BME280;61643;49.564;17.412;2023-05-23T02:42:04;97847.31;;;11.41;89.14
73429;BME280;61643;49.564;17.412;2023-05-23T02:44:31;97853.81;;;11.50;89.11
73429;BME280;61643;49.564;17.412;2023-05-23T02:46:57;97850.53;;;11.68;87.79
73429;BME280;61643;49.564;17.412;2023-05-23T02:49:22;97842.47;;;11.73;87.15
73429;BME280;61643;49.564;17.412;2023-05-23T02:51:49;97852.19;;;11.79;87.76
73429;BME280;61643;49.564;17.412;2023-05-23T02:54:15;97848.38;;;11.55;89.50
73429;BME280;61643;49.564;17.412;2023-05-23T02:56:41;97839.22;;;11.56;89.45
73429;BME280;61643;49.564;17.412;2023-05-23T02:59:07;97838.44;;;11.60;89.38
73429;BME280;61643;49.564;17.412;2023-05-23T03:01:33;97829.50;;;11.65;90.05
73429;BME280;61643;49.564;17.412;2023-05-23T03:03:59;97826.81;;;11.70;91.11
73429;BME280;61643;49.564;17.412;2023-05-23T03:06:25;97827.88;;;11.69;91.06
73429;BME280;61643;49.564;17.412;2023-05-23T03:08:52;97836.53;;;11.71;91.31
73429;BME280;61643;49.564;17.412;2023-05-23T03:11:18;97838.13;;;11.77;91.49
73429;BME280;61643;49.564;17.412;2023-05-23T03:13:44;97820.63;;;11.64;92.49
73429;BME280;61643;49.564;17.412;2023-05-23T03:16:10;97832.47;;;11.68;93.61
73429;BME280;61643;49.564;17.412;2023-05-23T03:18:37;97829.50;;;11.80;92.83
73429;BME280;61643;49.564;17.412;2023-05-23T03:21:06;97828.13;;;11.93;93.25
73429;BME280;61643;49.564;17.412;2023-05-23T03:23:32;97820.00;;;12.08;91.71
73429;BME280;61643;49.564;17.412;2023-05-23T03:26:01;97822.41;;;12.09;91.79
73429;BME280;61643;49.564;17.412;2023-05-23T03:28:31;97825.13;;;12.04;90.09
73429;BME280;61643;49.564;17.412;2023-05-23T03:30:57;97824.56;;;12.07;92.20
73429;BME280;61643;49.564;17.412;2023-05-23T03:33:24;97830.47;;;12.14;91.84
73429;BME280;61643;49.564;17.412;2023-05-23T03:35:50;97828.84;;;12.13;92.17
73429;BME280;61643;49.564;17.412;2023-05-23T03:38:16;97825.09;;;12.14;93.86
73429;BME280;61643;49.564;17.412;2023-05-23T03:40:42;97833.19;;;12.09;95.17
73429;BME280;61643;49.564;17.412;2023-05-23T03:43:08;97825.81;;;12.30;94.13
73429;BME280;61643;49.564;17.412;2023-05-23T03:45:34;97831.88;;;12.56;91.93
73429;BME280;61643;49.564;17.412;2023-05-23T03:48:00;97830.97;;;12.75;90.15
73429;BME280;61643;49.564;17.412;2023-05-23T03:50:26;97829.00;;;12.86;89.07
73429;BME280;61643;49.564;17.412;2023-05-23T03:52:53;97829.53;;;12.88;89.05
73429;BME280;61643;49.564;17.412;2023-05-23T03:55:22;97832.69;;;13.00;88.51
73429;BME280;61643;49.564;17.412;2023-05-23T03:57:49;97835.41;;;13.00;89.81
73429;BME280;61643;49.564;17.412;2023-05-23T04:00:16;97831.88;;;13.00;92.28
73429;BME280;61643;49.564;17.412;2023-05-23T04:02:46;97837.25;;;13.10;90.48
73429;BME280;61643;49.564;17.412;2023-05-23T04:05:12;97831.06;;;13.09;92.40
73429;BME280;61643;49.564;17.412;2023-05-23T04:07:38;97824.16;;;13.27;89.28
73429;BME280;61643;49.564;17.412;2023-05-23T04:10:05;97826.03;;;13.26;90.82
73429;BME280;61643;49.564;17.412;2023-05-23T04:12:31;97822.97;;;13.38;90.17
73429;BME280;61643;49.564;17.412;2023-05-23T04:14:57;97819.56;;;13.56;87.65
73429;BME280;61643;49.564;17.412;2023-05-23T04:17:24;97823.94;;;13.76;85.31
73429;BME280;61643;49.564;17.412;2023-05-23T04:19:51;97822.47;;;13.89;85.42
73429;BME280;61643;49.564;17.412;2023-05-23T04:22:17;97818.66;;;13.90;86.81
73429;BME280;61643;49.564;17.412;2023-05-23T04:24:43;97821.50;;;14.03;84.97
73429;BME280;61643;49.564;17.412;2023-05-23T04:27:09;97822.81;;;14.06;88.65
73429;BME280;61643;49.564;17.412;2023-05-23T04:29:35;97815.88;;;14.18;86.20
73429;BME280;61643;49.564;17.412;2023-05-23T04:32:01;97809.22;;;14.35;83.91
73429;BME280;61643;49.564;17.412;2023-05-23T04:34:27;97812.59;;;14.45;81.84
73429;BME280;61643;49.564;17.412;2023-05-23T04:36:53;97804.56;;;14.59;82.53
73429;BME280;61643;49.564;17.412;2023-05-23T04:39:19;97803.53;;;14.73;81.51
73429;BME280;61643;49.564;17.412;2023-05-23T04:41:45;97809.09;;;14.82;83.07
73429;BME280;61643;49.564;17.412;2023-05-23T04:44:11;97811.38;;;14.94;80.23
73429;BME280;61643;49.564;17.412;2023-05-23T04:46:39;97813.91;;;15.04;78.26
73429;BME280;61643;49.564;17.412;2023-05-23T04:49:09;97804.31;;;15.11;77.71
73429;BME280;61643;49.564;17.412;2023-05-23T04:51:36;97815.00;;;15.21;77.23
73429;BME280;61643;49.564;17.412;2023-05-23T04:54:03;97813.72;;;15.33;76.80
73429;BME280;61643;49.564;17.412;2023-05-23T04:56:29;97807.09;;;15.39;76.67
73429;BME280;61643;49.564;17.412;2023-05-23T04:58:55;97805.13;;;15.44;76.01
73429;BME280;61643;49.564;17.412;2023-05-23T05:01:21;97811.81;;;15.33;74.69
73429;BME280;61643;49.564;17.412;2023-05-23T05:03:50;97806.88;;;15.35;75.26
73429;BME280;61643;49.564;17.412;2023-05-23T05:06:16;97803.47;;;15.30;78.73
73429;BME280;61643;49.564;17.412;2023-05-23T05:08:43;97804.19;;;15.35;77.92
73429;BME280;61643;49.564;17.412;2023-05-23T05:11:09;97792.56;;;15.16;78.44
73429;BME280;61643;49.564;17.412;2023-05-23T05:13:35;97802.63;;;15.15;77.58
73429;BME280;61643;49.564;17.412;2023-05-23T05:16:02;97807.03;;;15.11;78.14
73429;BME280;61643;49.564;17.412;2023-05-23T05:18:29;97805.03;;;15.17;78.24
73429;BME280;61643;49.564;17.412;2023-05-23T05:20:55;97802.94;;;15.27;77.79
73429;BME280;61643;49.564;17.412;2023-05-23T05:23:24;97799.06;;;15.34;77.44
73429;BME280;61643;49.564;17.412;2023-05-23T05:25:50;97811.13;;;15.41;77.03
73429;BME280;61643;49.564;17.412;2023-05-23T05:28:16;97810.13;;;15.37;76.89
73429;BME280;61643;49.564;17.412;2023-05-23T05:30:42;97817.88;;;15.44;77.82
73429;BME280;61643;49.564;17.412;2023-05-23T05:33:10;97824.84;;;15.50;76.77
73429;BME280;61643;49.564;17.412;2023-05-23T05:35:36;97809.38;;;15.50;77.46
73429;BME280;61643;49.564;17.412;2023-05-23T05:38:05;97807.31;;;15.42;77.01
73429;BME280;61643;49.564;17.412;2023-05-23T05:40:33;97817.25;;;15.65;76.46
73429;BME280;61643;49.564;17.412;2023-05-23T05:42:59;97815.03;;;15.81;75.64
73429;BME280;61643;49.564;17.412;2023-05-23T05:45:25;97823.09;;;16.00;75.25
73429;BME280;61643;49.564;17.412;2023-05-23T05:47:51;97813.16;;;16.09;77.88
73429;BME280;61643;49.564;17.412;2023-05-23T05:50:17;97807.44;;;16.24;77.41
73429;BME280;61643;49.564;17.412;2023-05-23T05:52:45;97813.75;;;16.33;76.42
73429;BME280;61643;49.564;17.412;2023-05-23T05:55:11;97818.69;;;15.90;74.99
73429;BME280;61643;49.564;17.412;2023-05-23T05:57:40;97816.28;;;16.02;74.97
73429;BME280;61643;49.564;17.412;2023-05-23T06:00:08;97812.56;;;15.98;73.86
73429;BME280;61643;49.564;17.412;2023-05-23T06:02:40;97807.00;;;16.17;75.12
73429;BME280;61643;49.564;17.412;2023-05-23T06:05:10;97801.59;;;16.31;75.11
73429;BME280;61643;49.564;17.412;2023-05-23T06:07:37;97795.50;;;16.47;73.32
73429;BME280;61643;49.564;17.412;2023-05-23T06:10:04;97798.63;;;16.54;70.60
73429;BME280;61643;49.564;17.412;2023-05-23T06:12:30;97800.47;;;16.59;69.99
73429;BME280;61643;49.564;17.412;2023-05-23T06:14:56;97806.03;;;16.76;71.22
73429;BME280;61643;49.564;17.412;2023-05-23T06:17:22;97794.63;;;16.88;69.36
73429;BME280;61643;49.564;17.412;2023-05-23T06:19:48;97798.19;;;17.10;69.89
73429;BME280;61643;49.564;17.412;2023-05-23T06:22:14;97788.22;;;17.28;75.06
73429;BME280;61643;49.564;17.412;2023-05-23T06:24:40;97788.88;;;17.56;71.26
73429;BME280;61643;49.564;17.412;2023-05-23T06:27:06;97773.97;;;17.53;68.46
73429;BME280;61643;49.564;17.412;2023-05-23T06:29:31;97778.44;;;17.49;65.72
73429;BME280;61643;49.564;17.412;2023-05-23T06:31:57;97778.19;;;17.59;65.51
73429;BME280;61643;49.564;17.412;2023-05-23T06:34:23;97780.59;;;17.61;66.66
73429;BME280;61643;49.564;17.412;2023-05-23T06:36:50;97775.59;;;17.54;67.78
73429;BME280;61643;49.564;17.412;2023-05-23T06:39:15;97775.59;;;17.54;68.17
73429;BME280;61643;49.564;17.412;2023-05-23T06:41:41;97776.09;;;17.56;69.29
73429;BME280;61643;49.564;17.412;2023-05-23T06:44:07;97766.28;;;17.55;70.92
73429;BME280;61643;49.564;17.412;2023-05-23T06:46:33;97766.50;;;17.59;73.19
73429;BME280;61643;49.564;17.412;2023-05-23T06:48:59;97768.75;;;17.57;73.19
73429;BME280;61643;49.564;17.412;2023-05-23T06:51:25;97759.56;;;17.53;73.46
73429;BME280;61643;49.564;17.412;2023-05-23T06:53:52;97768.59;;;17.62;73.45
73429;BME280;61643;49.564;17.412;2023-05-23T06:56:18;97763.16;;;17.62;73.67
73429;BME280;61643;49.564;17.412;2023-05-23T06:58:44;97764.66;;;17.77;73.76
73429;BME280;61643;49.564;17.412;2023-05-23T07:01:10;97758.63;;;17.88;72.31
73429;BME280;61643;49.564;17.412;2023-05-23T07:03:36;97749.56;;;18.01;70.86
73429;BME280;61643;49.564;17.412;2023-05-23T07:06:06;97748.78;;;18.18;70.42
73429;BME280;61643;49.564;17.412;2023-05-23T07:08:32;97747.19;;;18.34;70.53
73429;BME280;61643;49.564;17.412;2023-05-23T07:10:58;97746.28;;;18.47;70.85
73429;BME280;61643;49.564;17.412;2023-05-23T07:13:24;97740.06;;;18.55;71.85
73429;BME280;61643;49.564;17.412;2023-05-23T07:15:50;97726.91;;;18.57;74.50
73429;BME280;61643;49.564;17.412;2023-05-23T07:18:16;97740.22;;;18.76;72.59
73429;BME280;61643;49.564;17.412;2023-05-23T07:20:42;97733.47;;;18.82;74.62
73429;BME280;61643;49.564;17.412;2023-05-23T07:23:08;97729.66;;;18.92;73.65
73429;BME280;61643;49.564;17.412;2023-05-23T07:25:34;97732.50;;;19.04;71.47
73429;BME280;61643;49.564;17.412;2023-05-23T07:28:00;97737.63;;;19.14;71.76
73429;BME280;61643;49.564;17.412;2023-05-23T07:30:26;97728.63;;;19.22;71.59
73429;BME280;61643;49.564;17.412;2023-05-23T07:32:52;97723.63;;;19.33;74.50
73429;BME280;61643;49.564;17.412;2023-05-23T07:35:19;97735.03;;;19.35;72.51
73429;BME280;61643;49.564;17.412;2023-05-23T07:37:51;97737.75;;;19.26;73.44
73429;BME280;61643;49.564;17.412;2023-05-23T07:40:18;97734.56;;;19.24;73.76
73429;BME280;61643;49.564;17.412;2023-05-23T07:42:44;97731.81;;;19.33;72.76
73429;BME280;61643;49.564;17.412;2023-05-23T07:45:10;97737.22;;;19.50;73.16
73429;BME280;61643;49.564;17.412;2023-05-23T07:47:36;97737.84;;;19.64;71.58
73429;BME280;61643;49.564;17.412;2023-05-23T07:50:03;97730.41;;;19.73;71.17
73429;BME280;61643;49.564;17.412;2023-05-23T07:52:29;97729.91;;;19.80;70.73
73429;BME280;61643;49.564;17.412;2023-05-23T07:54:57;97733.41;;;19.89;71.67
73429;BME280;61643;49.564;17.412;2023-05-23T07:57:23;97731.28;;;19.94;71.34
73429;BME280;61643;49.564;17.412;2023-05-23T07:59:51;97725.53;;;19.87;71.20
73429;BME280;61643;49.564;17.412;2023-05-23T08:02:17;97728.78;;;19.81;72.05
73429;BME280;61643;49.564;17.412;2023-05-23T08:04:43;97739.06;;;19.75;73.22
73429;BME280;61643;49.564;17.412;2023-05-23T08:07:10;97738.78;;;19.68;72.01
73429;BME280;61643;49.564;17.412;2023-05-23T08:09:38;97741.38;;;19.64;74.42
73429;BME280;61643;49.564;17.412;2023-05-23T08:12:06;97737.72;;;19.60;75.77
73429;BME280;61643;49.564;17.412;2023-05-23T08:14:32;97730.78;;;19.63;74.62
73429;BME280;61643;49.564;17.412;2023-05-23T08:16:58;97736.69;;;19.74;74.04
73429;BME280;61643;49.564;17.412;2023-05-23T08:19:24;97724.56;;;19.92;72.52
73429;BME280;61643;49.564;17.412;2023-05-23T08:21:50;97738.97;;;20.01;72.42
73429;BME280;61643;49.564;17.412;2023-05-23T08:24:18;97738.47;;;20.07;72.45
73429;BME280;61643;49.564;17.412;2023-05-23T08:26:45;97737.13;;;20.13;72.30
73429;BME280;61643;49.564;17.412;2023-05-23T08:29:11;97739.47;;;20.24;73.69
73429;BME280;61643;49.564;17.412;2023-05-23T08:31:38;97733.06;;;20.28;73.88
73429;BME280;61643;49.564;17.412;2023-05-23T08:34:04;97732.66;;;20.38;73.94
73429;BME280;61643;49.564;17.412;2023-05-23T08:36:30;97730.75;;;20.39;72.05
73429;BME280;61643;49.564;17.412;2023-05-23T08:39:01;97725.50;;;20.54;72.48
73429;BME280;61643;49.564;17.412;2023-05-23T08:41:29;97728.81;;;20.60;71.25
73429;BME280;61643;49.564;17.412;2023-05-23T08:43:58;97727.41;;;20.54;73.19
73429;BME280;61643;49.564;17.412;2023-05-23T08:46:25;97739.34;;;20.70;76.93
73429;BME280;61643;49.564;17.412;2023-05-23T08:48:53;97731.94;;;20.91;77.75
73429;BME280;61643;49.564;17.412;2023-05-23T08:51:25;97723.09;;;21.06;76.34
73429;BME280;61643;49.564;17.412;2023-05-23T08:53:52;97722.28;;;21.06;75.97
73429;BME280;61643;49.564;17.412;2023-05-23T08:56:19;97728.84;;;21.14;73.45
73429;BME280;61643;49.564;17.412;2023-05-23T08:58:45;97739.66;;;21.10;73.22
73429;BME280;61643;49.564;17.412;2023-05-23T09:01:12;97735.53;;;21.04;73.90
73429;BME280;61643;49.564;17.412;2023-05-23T09:03:39;97746.34;;;21.00;73.89
73429;BME280;61643;49.564;17.412;2023-05-23T09:06:08;97751.56;;;20.93;73.66
73429;BME280;61643;49.564;17.412;2023-05-23T09:08:35;97755.28;;;20.89;74.16
73429;BME280;61643;49.564;17.412;2023-05-23T09:11:03;97754.34;;;20.85;74.33
73429;BME280;61643;49.564;17.412;2023-05-23T09:13:30;97749.56;;;20.82;75.35
73429;BME280;61643;49.564;17.412;2023-05-23T09:16:05;97751.03;;;20.79;74.52
73429;BME280;61643;49.564;17.412;2023-05-23T09:18:42;97750.22;;;20.79;73.64
73429;BME280;61643;49.564;17.412;2023-05-23T09:21:10;97749.44;;;20.78;74.69
73429;BME280;61643;49.564;17.412;2023-05-23T09:23:37;97749.88;;;20.80;78.77
73429;BME280;61643;49.564;17.412;2023-05-23T09:26:08;97743.41;;;20.85;76.56
73429;BME280;61643;49.564;17.412;2023-05-23T09:28:35;97743.81;;;20.75;75.21
73429;BME280;61643;49.564;17.412;2023-05-23T09:31:06;97751.44;;;20.90;76.25
73429;BME280;61643;49.564;17.412;2023-05-23T09:36:08;97748.28;;;21.00;75.96
73429;BME280;61643;49.564;17.412;2023-05-23T09:38:38;97746.34;;;21.00;76.39
73429;BME280;61643;49.564;17.412;2023-05-23T09:41:04;97742.53;;;21.14;74.07
73429;BME280;61643;49.564;17.412;2023-05-23T09:43:30;97736.50;;;21.20;74.50
73429;BME280;61643;49.564;17.412;2023-05-23T09:46:05;97740.84;;;21.21;76.39
73429;BME280;61643;49.564;17.412;2023-05-23T09:48:32;97739.50;;;21.27;74.63
73429;BME280;61643;49.564;17.412;2023-05-23T09:50:58;97735.75;;;21.32;72.76
73429;BME280;61643;49.564;17.412;2023-05-23T09:53:28;97734.75;;;21.36;71.78
73429;BME280;61643;49.564;17.412;2023-05-23T09:55:55;97736.63;;;21.24;73.30
73429;BME280;61643;49.564;17.412;2023-05-23T09:58:25;97731.22;;;21.36;74.52
73429;BME280;61643;49.564;17.412;2023-05-23T10:00:52;97727.22;;;21.33;72.06
73429;BME280;61643;49.564;17.412;2023-05-23T10:03:25;97717.34;;;21.20;71.79
73429;BME280;61643;49.564;17.412;2023-05-23T10:05:56;97720.22;;;21.24;73.40
73429;BME280;61643;49.564;17.412;2023-05-23T10:08:31;97713.38;;;21.18;74.25
73429;BME280;61643;49.564;17.412;2023-05-23T10:14:08;97714.66;;;21.32;73.51
73429;BME280;61643;49.564;17.412;2023-05-23T10:19:42;97708.28;;;21.40;74.03
73429;BME280;61643;49.564;17.412;2023-05-23T10:22:11;97706.81;;;21.43;75.85
73429;BME280;61643;49.564;17.412;2023-05-23T10:24:39;97706.59;;;21.48;76.40
73429;BME280;61643;49.564;17.412;2023-05-23T10:27:06;97714.34;;;21.46;73.08
73429;BME280;61643;49.564;17.412;2023-05-23T10:29:32;97719.94;;;21.49;73.39
73429;BME280;61643;49.564;17.412;2023-05-23T10:31:59;97720.84;;;21.41;72.44
73429;BME280;61643;49.564;17.412;2023-05-23T10:39:56;97724.19;;;21.59;72.19
73429;BME280;61643;49.564;17.412;2023-05-23T10:42:34;97714.28;;;21.67;71.84
73429;BME280;61643;49.564;17.412;2023-05-23T10:45:20;97724.66;;;21.73;71.90
73429;BME280;61643;49.564;17.412;2023-05-23T10:47:48;97731.50;;;21.79;71.23
73429;BME280;61643;49.564;17.412;2023-05-23T10:50:29;97729.78;;;21.75;72.41
73429;BME280;61643;49.564;17.412;2023-05-23T10:53:02;97731.41;;;21.88;73.24
73429;BME280;61643;49.564;17.412;2023-05-23T10:55:35;97725.72;;;21.93;72.77
73429;BME280;61643;49.564;17.412;2023-05-23T10:58:15;97727.22;;;22.02;72.11
73429;BME280;61643;49.564;17.412;2023-05-23T11:01:00;97729.50;;;22.13;71.28
73429;BME280;61643;49.564;17.412;2023-05-23T11:06:01;97725.25;;;22.15;70.65
73429;BME280;61643;49.564;17.412;2023-05-23T11:08:27;97729.38;;;22.21;71.42
73429;BME280;61643;49.564;17.412;2023-05-23T11:10:59;97722.53;;;22.27;69.56
73429;BME280;61643;49.564;17.412;2023-05-23T11:21:49;97715.22;;;22.19;70.07
73429;BME280;61643;49.564;17.412;2023-05-23T11:24:15;97702.31;;;22.07;71.22
73429;BME280;61643;49.564;17.412;2023-05-23T11:26:56;97704.50;;;22.02;73.32
73429;BME280;61643;49.564;17.412;2023-05-23T11:29:26;97701.19;;;21.96;73.29
73429;BME280;61643;49.564;17.412;2023-05-23T11:31:54;97696.59;;;21.88;75.12
73429;BME280;61643;49.564;17.412;2023-05-23T11:34:22;97696.81;;;21.83;75.45
73429;BME280;61643;49.564;17.412;2023-05-23T11:36:52;97687.25;;;21.77;75.54
73429;BME280;61643;49.564;17.412;2023-05-23T11:39:19;97678.53;;;21.75;78.25
73429;BME280;61643;49.564;17.412;2023-05-23T11:41:57;97664.84;;;21.75;78.55
73429;BME280;61643;49.564;17.412;2023-05-23T11:44:24;97668.03;;;21.89;76.31
73429;BME280;61643;49.564;17.412;2023-05-23T11:47:03;97657.09;;;22.01;75.76
73429;BME280;61643;49.564;17.412;2023-05-23T11:49:33;97646.81;;;22.11;75.79
73429;BME280;61643;49.564;17.412;2023-05-23T11:52:01;97650.59;;;22.06;74.74
73429;BME280;61643;49.564;17.412;2023-05-23T11:54:27;97648.31;;;21.96;72.95
73429;BME280;61643;49.564;17.412;2023-05-23T11:56:55;97650.47;;;21.78;73.16
73429;BME280;61643;49.564;17.412;2023-05-23T11:59:22;97648.66;;;21.94;72.73
73429;BME280;61643;49.564;17.412;2023-05-23T12:01:48;97653.00;;;21.95;72.98
73429;BME280;61643;49.564;17.412;2023-05-23T12:04:14;97647.97;;;22.10;72.40
73429;BME280;61643;49.564;17.412;2023-05-23T12:06:41;97656.25;;;22.25;72.65
73429;BME280;61643;49.564;17.412;2023-05-23T12:09:10;97652.84;;;22.28;69.49
73429;BME280;61643;49.564;17.412;2023-05-23T12:11:38;97651.34;;;22.31;68.02
73429;BME280;61643;49.564;17.412;2023-05-23T12:14:05;97653.25;;;22.42;68.76
73429;BME280;61643;49.564;17.412;2023-05-23T12:16:32;97658.59;;;22.51;68.38
73429;BME280;61643;49.564;17.412;2023-05-23T12:18:59;97654.94;;;22.47;65.49
73429;BME280;61643;49.564;17.412;2023-05-23T12:21:39;97661.00;;;22.52;67.01
73429;BME280;61643;49.564;17.412;2023-05-23T12:24:18;97668.19;;;22.57;66.89
73429;BME280;61643;49.564;17.412;2023-05-23T12:26:49;97663.13;;;22.59;66.89
73429;BME280;61643;49.564;17.412;2023-05-23T12:29:17;97662.34;;;22.58;67.36
73429;BME280;61643;49.564;17.412;2023-05-23T12:31:43;97655.84;;;22.51;68.15
73429;BME280;61643;49.564;17.412;2023-05-23T12:34:12;97657.94;;;22.42;67.96
73429;BME280;61643;49.564;17.412;2023-05-23T12:36:38;97651.34;;;22.31;68.60
73429;BME280;61643;49.564;17.412;2023-05-23T12:39:05;97654.69;;;22.24;69.03
73429;BME280;61643;49.564;17.412;2023-05-23T12:41:32;97652.16;;;22.19;70.00
73429;BME280;61643;49.564;17.412;2023-05-23T12:43:58;97648.59;;;22.31;70.06
73429;BME280;61643;49.564;17.412;2023-05-23T12:46:25;97653.38;;;22.34;69.46
73429;BME280;61643;49.564;17.412;2023-05-23T12:48:52;97653.28;;;22.30;69.67
73429;BME280;61643;49.564;17.412;2023-05-23T12:51:19;97642.91;;;22.24;69.85
73429;BME280;61643;49.564;17.412;2023-05-23T12:53:45;63126.34;;;-140.92;100.00
73429;BME280;61643;49.564;17.412;2023-05-23T12:56:11;97649.00;;;21.93;70.84
73429;BME280;61643;49.564;17.412;2023-05-23T12:58:37;97644.44;;;21.97;70.84
73429;BME280;61643;49.564;17.412;2023-05-23T13:01:03;97645.34;;;22.01;71.98
73429;BME280;61643;49.564;17.412;2023-05-23T13:03:30;97650.72;;;22.10;73.03
73429;BME280;61643;49.564;17.412;2023-05-23T13:05:57;97649.75;;;22.18;74.30
73429;BME280;61643;49.564;17.412;2023-05-23T13:08:23;97650.22;;;22.20;74.42
73429;BME280;61643;49.564;17.412;2023-05-23T13:10:49;97641.91;;;22.16;74.45
73429;BME280;61643;49.564;17.412;2023-05-23T13:13:15;97643.41;;;22.01;69.49
73429;BME280;61643;49.564;17.412;2023-05-23T13:15:41;97637.44;;;21.99;70.74
73429;BME280;61643;49.564;17.412;2023-05-23T13:18:07;97638.16;;;21.96;70.95
73429;BME280;61643;49.564;17.412;2023-05-23T13:20:33;97639.16;;;22.04;71.22
73429;BME280;61643;49.564;17.412;2023-05-23T13:22:59;97637.22;;;22.17;71.25
73429;BME280;61643;49.564;17.412;2023-05-23T13:25:26;97637.38;;;22.36;71.43